Time;durP1;ratioP1;P1;durP2;ratioP2;P2;SDS_P1;SDS_P2;PMS_P1;PMS_P2;Temp;Humidity;BMP_temperature;BMP_pressure;BME280_temperature;BME280_humidity;BME280_pressure;Samples;Min_cycle;Max_cycle;Signal;HPM_P1;HPM_P2
2022/03/07 00:01:27;;;;;;;15.68;7.93;;;0.20;99.90;;;;;;5113753;28;20016;-83
2022/03/07 00:03:54;;;;;;;21.02;7.97;;;0.20;99.90;;;;;;5114793;28;20050;-83
2022/03/07 00:06:26;;;;;;;14.27;7.20;;;0.20;99.90;;;;;;5117960;28;20028;-83
2022/03/07 00:08:51;;;;;;;10.20;6.60;;;0.10;99.90;;;;;;5099162;28;20387;-84
2022/03/07 00:11:17;;;;;;;13.07;7.07;;;0.20;99.90;;;;;;5117464;28;20041;-83
2022/03/07 00:13:51;;;;;;;8.98;6.35;;;0.20;99.90;;;;;;5117262;28;20085;-83
2022/03/07 00:16:17;;;;;;;8.60;6.18;;;0.20;99.90;;;;;;5117429;28;20027;-83
2022/03/07 00:18:47;;;;;;;9.88;6.72;;;0.20;99.90;;;;;;5117404;28;20020;-83
2022/03/07 00:21:13;;;;;;;11.40;6.45;;;0.20;99.90;;;;;;5120987;27;20064;-83
2022/03/07 00:23:43;;;;;;;9.48;5.93;;;0.20;99.90;;;;;;5117758;27;20023;-84
2022/03/07 00:26:09;;;;;;;14.60;7.60;;;0.20;99.90;;;;;;5137767;27;20027;-83
2022/03/07 00:28:34;;;;;;;14.25;7.97;;;0.20;99.90;;;;;;5137545;27;20382;-83
2022/03/07 00:31:07;;;;;;;16.13;7.22;;;0.20;99.90;;;;;;5137136;27;20027;-84
2022/03/07 00:33:34;;;;;;;17.80;7.63;;;0.20;99.90;;;;;;5113611;28;20027;-83
2022/03/07 00:36:05;;;;;;;12.07;6.95;;;0.20;99.90;;;;;;5116981;28;20031;-83
2022/03/07 00:38:40;;;;;;;15.77;6.50;;;0.20;99.90;;;;;;5116827;28;20050;-83
2022/03/07 00:41:08;;;;;;;12.68;6.35;;;0.20;99.90;;;;;;5098669;28;20031;-84
2022/03/07 00:43:33;;;;;;;9.98;6.55;;;0.20;99.90;;;;;;5116663;28;20365;-83
2022/03/07 00:46:37;;;;;;;13.05;7.03;;;0.20;99.90;;;;;;5098623;28;20111;-83
2022/03/07 00:49:02;;;;;;;10.63;6.47;;;0.20;99.90;;;;;;5098581;28;20446;-84
2022/03/07 00:51:28;;;;;;;13.23;6.20;;;0.20;99.90;;;;;;5116642;28;20028;-84
2022/03/07 00:54:02;;;;;;;7.90;5.65;;;0.20;99.90;;;;;;5098681;28;20027;-84
2022/03/07 00:56:28;;;;;;;10.18;5.72;;;0.20;99.90;;;;;;5098284;28;20038;-83
2022/03/07 00:58:53;;;;;;;9.77;5.60;;;0.20;99.90;;;;;;5116466;28;20471;-84
2022/03/07 01:01:23;;;;;;;13.52;5.82;;;0.20;99.90;;;;;;5098098;28;20024;-81
2022/03/07 01:03:50;;;;;;;7.53;5.20;;;0.20;99.90;;;;;;5115814;28;20047;-81
2022/03/07 01:06:17;;;;;;;9.82;5.65;;;0.30;99.90;;;;;;5122794;27;20485;-81
2022/03/07 01:08:42;;;;;;;8.43;5.80;;;0.20;99.90;;;;;;5098242;28;20547;-81
2022/03/07 01:11:10;;;;;;;10.55;6.53;;;0.30;99.90;;;;;;5116200;28;20039;-81
2022/03/07 01:13:35;;;;;;;14.45;6.28;;;0.20;99.90;;;;;;5115612;28;20477;-81
2022/03/07 01:16:02;;;;;;;9.10;5.47;;;0.20;99.90;;;;;;5114474;28;20093;-80
2022/03/07 01:18:27;;;;;;;10.02;6.10;;;0.20;99.90;;;;;;5097802;28;20028;-80
2022/03/07 01:20:53;;;;;;;10.68;5.53;;;0.20;99.90;;;;;;5115770;28;20498;-81
2022/03/07 01:23:19;;;;;;;7.38;5.38;;;0.20;99.90;;;;;;5116248;28;20020;-81
2022/03/07 01:25:45;;;;;;;9.23;5.90;;;0.20;99.90;;;;;;5115555;28;20054;-82
2022/03/07 01:28:10;;;;;;;8.40;5.40;;;0.20;99.90;;;;;;5115000;28;20034;-81
2022/03/07 01:30:37;;;;;;;9.50;5.38;;;0.20;99.90;;;;;;5121867;27;20023;-81
2022/03/07 01:33:02;;;;;;;12.45;5.93;;;0.20;99.90;;;;;;5136113;27;20027;-81
2022/03/07 01:35:28;;;;;;;8.00;5.35;;;0.20;99.90;;;;;;5119960;27;20567;-81
2022/03/07 01:37:54;;;;;;;11.43;5.85;;;0.20;99.90;;;;;;5115446;28;20491;-82
2022/03/07 01:40:19;;;;;;;9.32;5.65;;;0.20;99.90;;;;;;5115966;28;20023;-81
2022/03/07 01:42:45;;;;;;;12.43;5.88;;;0.20;99.90;;;;;;5115239;28;20043;-81
2022/03/07 01:45:18;;;;;;;7.07;5.22;;;0.30;99.90;;;;;;5115108;28;20042;-81
2022/03/07 01:47:45;;;;;;;9.00;5.65;;;0.30;99.90;;;;;;5115292;28;20106;-81
2022/03/07 01:50:13;;;;;;;11.18;5.22;;;0.30;99.90;;;;;;5097330;28;20029;-81
2022/03/07 01:52:45;;;;;;;9.30;5.25;;;0.30;99.90;;;;;;5096963;28;20030;-81
2022/03/07 01:55:12;;;;;;;11.15;5.85;;;0.30;99.90;;;;;;5115726;27;20028;-82
2022/03/07 01:57:38;;;;;;;8.07;5.63;;;0.30;99.90;;;;;;5115046;28;20028;-82
2022/03/07 02:00:09;;;;;;;9.10;5.80;;;0.30;99.90;;;;;;5096700;28;20026;-81
2022/03/07 02:02:35;;;;;;;7.93;5.38;;;0.30;99.90;;;;;;5114905;28;20407;-82
2022/03/07 02:05:01;;;;;;;8.70;5.82;;;0.30;99.90;;;;;;5114985;28;20020;-82
2022/03/07 02:07:27;;;;;;;11.52;6.00;;;0.30;99.90;;;;;;5115306;28;20034;-81
2022/03/07 02:09:54;;;;;;;14.90;6.70;;;0.30;99.90;;;;;;5127162;27;20034;-81
2022/03/07 02:12:20;;;;;;;10.30;5.72;;;0.30;99.90;;;;;;5115162;28;20024;-82
2022/03/07 02:14:45;;;;;;;12.93;5.78;;;0.30;99.90;;;;;;5096187;28;20026;-81
2022/03/07 02:17:11;;;;;;;7.93;5.47;;;0.30;99.90;;;;;;5096738;28;20038;-81
2022/03/07 02:19:37;;;;;;;10.18;5.25;;;0.30;99.90;;;;;;5114829;28;20016;-81
2022/03/07 02:22:05;;;;;;;6.95;4.85;;;0.30;99.90;;;;;;5114696;28;20531;-81
2022/03/07 02:24:31;;;;;;;8.10;4.88;;;0.30;99.90;;;;;;5114430;28;20413;-82
2022/03/07 02:27:03;;;;;;;7.60;5.38;;;0.30;99.90;;;;;;5114269;28;20031;-82
2022/03/07 02:29:29;;;;;;;8.63;5.93;;;0.30;99.90;;;;;;5114105;28;20019;-81
2022/03/07 02:31:55;;;;;;;8.20;5.95;;;0.30;99.90;;;;;;5114467;28;20416;-81
2022/03/07 02:34:21;;;;;;;9.40;6.07;;;0.30;99.90;;;;;;5114320;28;20028;-81
2022/03/07 02:36:47;;;;;;;6.32;5.47;;;0.40;99.90;;;;;;5114502;28;20402;-81
2022/03/07 02:39:13;;;;;;;12.13;5.65;;;0.40;99.90;;;;;;5096211;28;20053;-81
2022/03/07 02:41:39;;;;;;;6.60;5.30;;;0.40;99.90;;;;;;5114396;28;20065;-82
2022/03/07 02:44:08;;;;;;;8.43;5.82;;;0.40;99.90;;;;;;5115616;27;20451;-81
2022/03/07 02:46:33;;;;;;;10.98;6.32;;;0.30;99.90;;;;;;5096144;28;20030;-82
2022/03/07 02:48:59;;;;;;;12.00;5.80;;;0.30;99.90;;;;;;5114487;28;20387;-81
2022/03/07 02:51:27;;;;;;;13.13;5.72;;;0.30;99.90;;;;;;5113810;28;20031;-82
2022/03/07 02:53:53;;;;;;;11.70;6.28;;;0.30;99.90;;;;;;5114184;28;20075;-82
2022/03/07 02:56:18;;;;;;;10.45;5.40;;;0.30;99.90;;;;;;5114028;28;20031;-82
2022/03/07 02:58:45;;;;;;;7.88;5.50;;;0.30;99.90;;;;;;5106885;27;20093;-81
2022/03/07 03:01:11;;;;;;;9.40;5.85;;;0.30;99.90;;;;;;5116008;27;20022;-82
2022/03/07 03:03:36;;;;;;;9.25;6.07;;;0.30;99.90;;;;;;5134569;27;20023;-81
2022/03/07 03:06:05;;;;;;;9.68;6.18;;;0.40;99.90;;;;;;5119582;27;20027;-81
2022/03/07 03:08:31;;;;;;;8.82;5.43;;;0.40;99.90;;;;;;5108225;27;20030;-81
2022/03/07 03:11:11;;;;;;;9.23;5.95;;;0.40;99.90;;;;;;5115313;27;20028;-81
2022/03/07 03:13:37;;;;;;;6.32;5.15;;;0.30;99.90;;;;;;5100052;28;20030;-81
2022/03/07 03:16:03;;;;;;;12.70;5.78;;;0.30;99.90;;;;;;5095327;28;20027;-81
2022/03/07 03:18:29;;;;;;;12.18;6.45;;;0.30;99.90;;;;;;5113751;28;20020;-81
2022/03/07 03:20:55;;;;;;;10.55;6.32;;;0.30;99.90;;;;;;5113697;28;20038;-81
2022/03/07 03:23:22;;;;;;;9.32;5.78;;;0.30;99.90;;;;;;5113668;28;20457;-81
2022/03/07 03:25:54;;;;;;;10.55;6.28;;;0.30;99.90;;;;;;5113298;28;20542;-81
2022/03/07 03:28:20;;;;;;;10.30;5.80;;;0.30;99.90;;;;;;5113290;28;20080;-81
2022/03/07 03:30:47;;;;;;;11.20;6.45;;;0.30;99.90;;;;;;5116318;27;20039;-81
2022/03/07 03:33:13;;;;;;;9.80;6.03;;;0.30;99.90;;;;;;5098874;28;20034;-81
2022/03/07 03:35:38;;;;;;;16.85;6.95;;;0.30;99.90;;;;;;5113299;28;20102;-81
2022/03/07 03:38:05;;;;;;;8.52;6.00;;;0.30;99.90;;;;;;5112780;28;20039;-81
2022/03/07 03:40:32;;;;;;;7.53;6.07;;;0.20;99.90;;;;;;5113109;28;20015;-81
2022/03/07 03:42:58;;;;;;;6.53;5.43;;;0.30;99.90;;;;;;5094815;28;20047;-81
2022/03/07 03:45:23;;;;;;;9.45;6.55;;;0.20;99.90;;;;;;5113112;28;20050;-81
2022/03/07 03:47:52;;;;;;;6.90;5.72;;;0.20;99.90;;;;;;5129673;27;20434;-81
2022/03/07 03:50:18;;;;;;;10.80;5.88;;;0.20;99.90;;;;;;5113413;28;20032;-81
2022/03/07 03:52:44;;;;;;;8.70;5.40;;;0.20;99.90;;;;;;5094888;28;20024;-81
2022/03/07 03:55:11;;;;;;;8.90;5.90;;;0.20;99.90;;;;;;5095190;28;20023;-81
2022/03/07 03:57:38;;;;;;;11.98;6.30;;;0.20;99.90;;;;;;5112610;28;20102;-81
2022/03/07 04:00:09;;;;;;;12.38;6.40;;;0.20;99.90;;;;;;5095145;28;20016;-81
2022/03/07 04:02:38;;;;;;;11.90;6.32;;;0.20;99.90;;;;;;5095227;28;20110;-81
2022/03/07 04:05:04;;;;;;;9.25;5.60;;;0.20;99.90;;;;;;5113129;28;20015;-81
2022/03/07 04:07:30;;;;;;;9.60;5.88;;;0.20;99.90;;;;;;5094812;28;20016;-81
2022/03/07 04:09:56;;;;;;;9.52;6.00;;;0.20;99.90;;;;;;5124975;28;20045;-81
2022/03/07 04:12:22;;;;;;;10.05;6.28;;;0.20;99.90;;;;;;5102410;28;20027;-81
2022/03/07 04:14:48;;;;;;;8.70;5.47;;;0.20;99.90;;;;;;5094616;28;20186;-81
2022/03/07 04:17:13;;;;;;;9.20;6.20;;;0.20;99.90;;;;;;5112782;28;20073;-81
2022/03/07 04:19:39;;;;;;;8.02;6.03;;;0.10;99.90;;;;;;5132346;28;20023;-81
2022/03/07 04:22:06;;;;;;;12.05;5.90;;;0.10;99.90;;;;;;5115153;28;20102;-81
2022/03/07 04:24:34;;;;;;;7.68;5.32;;;0.10;99.90;;;;;;5132474;28;20485;-81
2022/03/07 04:27:00;;;;;;;10.27;5.57;;;0.10;99.90;;;;;;5113020;28;20024;-81
2022/03/07 04:29:27;;;;;;;12.68;7.05;;;0.00;99.90;;;;;;5112402;28;20076;-81
2022/03/07 04:31:52;;;;;;;11.23;6.07;;;0.00;99.90;;;;;;5115524;28;20039;-83
2022/03/07 04:34:18;;;;;;;12.00;6.97;;;-0.10;99.90;;;;;;5113130;28;20032;-83
2022/03/07 04:36:44;;;;;;;9.75;5.70;;;-0.10;99.90;;;;;;5113183;28;20486;-83
2022/03/07 04:39:10;;;;;;;8.55;6.13;;;-0.10;99.90;;;;;;5113019;28;20023;-83
2022/03/07 04:41:37;;;;;;;8.40;5.78;;;-0.10;99.90;;;;;;5112858;28;20016;-83
2022/03/07 04:44:12;;;;;;;11.57;6.85;;;-0.20;99.90;;;;;;5112535;28;20364;-82
2022/03/07 04:46:38;;;;;;;12.50;6.75;;;-0.20;99.90;;;;;;5113906;28;20078;-82
2022/03/07 04:49:04;;;;;;;11.23;6.00;;;-0.20;99.90;;;;;;5112842;28;20038;-82
2022/03/07 04:51:31;;;;;;;13.13;6.20;;;-0.30;99.90;;;;;;5098635;28;20539;-83
2022/03/07 04:53:56;;;;;;;12.65;6.13;;;-0.30;99.90;;;;;;5116585;28;20035;-83
2022/03/07 04:56:22;;;;;;;7.18;5.53;;;-0.40;99.90;;;;;;5117895;27;20027;-82
2022/03/07 04:58:50;;;;;;;11.52;6.10;;;-0.40;99.90;;;;;;5118529;27;20471;-83
2022/03/07 05:01:15;;;;;;;7.53;6.00;;;-0.50;99.90;;;;;;5136764;27;20375;-83
2022/03/07 05:03:41;;;;;;;13.48;5.97;;;-0.50;99.90;;;;;;5116644;28;20023;-83
2022/03/07 05:06:13;;;;;;;9.93;7.25;;;-0.60;99.90;;;;;;5116589;28;20388;-83
2022/03/07 05:08:39;;;;;;;17.70;7.20;;;-0.70;99.90;;;;;;5131428;27;20543;-82
2022/03/07 05:11:05;;;;;;;9.25;5.88;;;-0.70;99.90;;;;;;5116129;28;20117;-83
2022/03/07 05:13:32;;;;;;;9.45;6.20;;;-0.70;99.90;;;;;;5115961;28;20024;-82
2022/03/07 05:16:09;;;;;;;9.35;6.15;;;-0.70;99.90;;;;;;5116146;28;20502;-83
2022/03/07 05:18:35;;;;;;;21.90;7.25;;;-0.80;99.90;;;;;;5116241;28;20026;-82
2022/03/07 05:21:09;;;;;;;9.93;6.40;;;-0.80;99.90;;;;;;5097921;28;20463;-82
2022/03/07 05:23:34;;;;;;;15.20;7.55;;;-0.80;99.90;;;;;;5097612;28;20031;-82
2022/03/07 05:26:01;;;;;;;8.65;5.80;;;-0.80;99.90;;;;;;5115869;28;20464;-82
2022/03/07 05:28:27;;;;;;;19.10;7.28;;;-0.90;99.90;;;;;;5115918;28;20051;-83
2022/03/07 05:30:52;;;;;;;9.38;7.03;;;-0.90;99.90;;;;;;5115766;28;20074;-82
2022/03/07 05:33:28;;;;;;;13.88;7.13;;;-1.00;99.90;;;;;;5115538;28;20046;-82
2022/03/07 05:35:54;;;;;;;10.65;7.22;;;-1.00;99.90;;;;;;5114734;27;20106;-81
2022/03/07 05:38:20;;;;;;;11.57;6.57;;;-1.00;99.90;;;;;;5124244;27;20051;-81
2022/03/07 05:40:45;;;;;;;11.82;7.28;;;-1.10;99.90;;;;;;5122979;27;20059;-81
2022/03/07 05:43:12;;;;;;;12.13;7.30;;;-1.10;99.90;;;;;;5130713;27;20432;-81
2022/03/07 05:45:38;;;;;;;8.23;6.03;;;-1.10;99.90;;;;;;5135701;27;20023;-81
2022/03/07 05:48:04;;;;;;;12.20;7.13;;;-1.10;99.90;;;;;;5116748;27;20042;-81
2022/03/07 05:50:30;;;;;;;8.18;6.15;;;-1.10;99.90;;;;;;5114794;28;20094;-81
2022/03/07 05:52:55;;;;;;;8.88;6.07;;;-1.10;99.90;;;;;;5115670;27;20035;-81
2022/03/07 05:55:21;;;;;;;9.77;6.38;;;-1.10;99.90;;;;;;5130076;27;20467;-81
2022/03/07 05:57:47;;;;;;;9.65;7.22;;;-1.00;99.90;;;;;;5133166;27;20490;-81
2022/03/07 06:00:13;;;;;;;9.98;6.47;;;-1.10;99.90;;;;;;5118106;27;20031;-81
2022/03/07 06:02:39;;;;;;;9.70;6.88;;;-1.10;99.90;;;;;;5115659;27;20023;-81
2022/03/07 06:05:06;;;;;;;11.02;7.10;;;-1.10;99.90;;;;;;5118501;27;20090;-81
2022/03/07 06:07:31;;;;;;;15.25;8.10;;;-1.10;99.90;;;;;;5115153;27;20044;-82
2022/03/07 06:09:57;;;;;;;7.75;5.93;;;-1.10;99.90;;;;;;5108144;27;20047;-82
2022/03/07 06:12:23;;;;;;;10.38;7.38;;;-1.10;99.90;;;;;;5124880;27;20038;-81
2022/03/07 06:14:48;;;;;;;10.40;6.70;;;-1.10;99.90;;;;;;5101642;27;20023;-82
2022/03/07 06:17:14;;;;;;;11.07;7.22;;;-1.00;99.90;;;;;;5133581;27;20404;-82
2022/03/07 06:19:39;;;;;;;12.88;7.43;;;-1.10;99.90;;;;;;5134893;27;20509;-82
2022/03/07 06:22:05;;;;;;;11.70;7.40;;;-1.00;99.90;;;;;;5134889;27;20034;-82
2022/03/07 06:24:31;;;;;;;10.70;6.38;;;-1.00;99.90;;;;;;5134444;27;20019;-82
2022/03/07 06:26:57;;;;;;;9.43;6.95;;;-1.00;99.90;;;;;;5121902;27;20165;-82
2022/03/07 06:29:23;;;;;;;10.65;7.45;;;-0.90;99.90;;;;;;5130190;27;20030;-81
2022/03/07 06:31:49;;;;;;;11.93;6.50;;;-0.90;99.90;;;;;;5129911;27;20035;-82
2022/03/07 06:34:15;;;;;;;14.45;7.68;;;-0.90;99.90;;;;;;5122690;27;20114;-81
2022/03/07 06:36:40;;;;;;;11.15;7.50;;;-0.80;99.90;;;;;;5113651;28;20177;-81
2022/03/07 06:39:06;;;;;;;10.30;7.60;;;-0.80;99.90;;;;;;5116653;27;20047;-81
2022/03/07 06:41:32;;;;;;;18.10;8.70;;;-0.80;99.90;;;;;;5134519;27;20030;-82
2022/03/07 06:43:59;;;;;;;13.30;7.80;;;-0.70;99.90;;;;;;5131844;27;20102;-82
2022/03/07 06:46:25;;;;;;;15.95;7.97;;;-0.70;99.90;;;;;;5113960;28;20028;-82
2022/03/07 06:48:51;;;;;;;19.30;8.82;;;-0.70;99.90;;;;;;5113873;28;20123;-82
2022/03/07 06:51:18;;;;;;;11.68;7.47;;;-0.70;99.90;;;;;;5115327;27;20547;-81
2022/03/07 06:53:44;;;;;;;16.00;8.45;;;-0.70;99.90;;;;;;5130756;27;20034;-82
2022/03/07 06:56:10;;;;;;;16.35;8.48;;;-0.70;99.90;;;;;;5094860;28;20031;-81
2022/03/07 06:58:35;;;;;;;24.63;9.85;;;-0.70;99.90;;;;;;5115269;27;20477;-81
2022/03/07 07:01:01;;;;;;;12.35;8.10;;;-0.70;99.90;;;;;;5107161;27;20027;-81
2022/03/07 07:03:27;;;;;;;15.20;8.95;;;-0.70;99.90;;;;;;5132756;27;20378;-82
2022/03/07 07:05:52;;;;;;;15.15;8.98;;;-0.70;99.90;;;;;;5114400;27;20050;-82
2022/03/07 07:08:18;;;;;;;13.73;8.10;;;-0.70;99.90;;;;;;5114396;27;20428;-82
2022/03/07 07:10:44;;;;;;;23.75;9.27;;;-0.60;99.90;;;;;;5119088;27;20027;-81
2022/03/07 07:13:14;;;;;;;21.80;9.40;;;-0.50;99.90;;;;;;5114952;27;20081;-82
2022/03/07 07:15:40;;;;;;;16.27;8.98;;;-0.40;99.90;;;;;;5115545;27;20076;-82
2022/03/07 07:18:06;;;;;;;23.85;9.40;;;-0.40;99.90;;;;;;5125377;27;20073;-83
2022/03/07 07:20:32;;;;;;;15.73;7.85;;;-0.20;99.90;;;;;;5120443;27;20074;-83
2022/03/07 07:22:57;;;;;;;18.02;8.40;;;-0.10;99.90;;;;;;5108378;27;20049;-83
2022/03/07 07:25:23;;;;;;;19.60;8.50;;;0.00;99.90;;;;;;5115383;27;20058;-82
2022/03/07 07:27:48;;;;;;;18.52;7.88;;;0.10;99.90;;;;;;5116269;27;20038;-83
2022/03/07 07:30:14;;;;;;;14.60;8.35;;;0.20;99.90;;;;;;5121601;27;20059;-82
2022/03/07 07:32:41;;;;;;;16.02;7.75;;;0.30;99.90;;;;;;5123279;27;20114;-82
2022/03/07 07:35:10;;;;;;;16.13;7.47;;;0.30;99.90;;;;;;5103010;27;20069;-81
2022/03/07 07:37:36;;;;;;;10.80;7.88;;;0.30;99.90;;;;;;5133478;27;20049;-82
2022/03/07 07:40:05;;;;;;;13.35;8.02;;;0.40;99.90;;;;;;5110753;28;20031;-82
2022/03/07 07:42:31;;;;;;;13.45;8.50;;;0.50;99.90;;;;;;5112635;28;20019;-81
2022/03/07 07:44:56;;;;;;;14.50;8.20;;;0.60;99.90;;;;;;5112886;28;20098;-81
2022/03/07 07:47:22;;;;;;;15.10;7.95;;;0.60;99.90;;;;;;5112740;28;20023;-81
2022/03/07 07:49:47;;;;;;;12.00;7.82;;;0.70;99.90;;;;;;5112741;28;20080;-81
2022/03/07 07:52:13;;;;;;;17.70;10.20;;;0.70;99.90;;;;;;5094918;28;20016;-82
2022/03/07 07:54:39;;;;;;;20.25;10.18;;;0.70;99.90;;;;;;5120099;27;20035;-81
2022/03/07 07:57:07;;;;;;;16.35;9.38;;;0.80;99.90;;;;;;5132931;27;20126;-81
2022/03/07 07:59:33;;;;;;;21.83;10.40;;;0.90;99.90;;;;;;5133019;28;20030;-81
2022/03/07 08:01:59;;;;;;;19.92;11.02;;;0.90;99.90;;;;;;5131207;28;20035;-82
2022/03/07 08:04:24;;;;;;;17.55;10.02;;;1.00;99.90;;;;;;5133602;28;20463;-81
2022/03/07 08:06:50;;;;;;;14.00;8.50;;;1.00;99.90;;;;;;5115217;28;20455;-82
2022/03/07 08:09:15;;;;;;;14.25;8.35;;;1.10;99.90;;;;;;5113174;28;20035;-81
2022/03/07 08:11:45;;;;;;;15.05;7.95;;;1.20;99.90;;;;;;5124860;28;20527;-81
2022/03/07 08:14:11;;;;;;;15.77;7.93;;;1.30;99.90;;;;;;5094242;28;20024;-82
2022/03/07 08:16:36;;;;;;;15.25;7.03;;;1.30;99.90;;;;;;5113574;28;20514;-82
2022/03/07 08:19:04;;;;;;;14.88;7.55;;;1.30;99.90;;;;;;5112870;28;20020;-82
2022/03/07 08:21:29;;;;;;;20.35;7.47;;;1.30;99.90;;;;;;5113158;28;20043;-82
2022/03/07 08:24:02;;;;;;;13.77;8.07;;;1.30;99.90;;;;;;5125693;27;20053;-82
2022/03/07 08:26:28;;;;;;;10.80;7.03;;;1.40;99.90;;;;;;5137443;27;20046;-81
2022/03/07 08:28:54;;;;;;;16.35;7.55;;;1.40;99.90;;;;;;5118533;27;20027;-82
2022/03/07 08:31:19;;;;;;;11.95;6.82;;;1.40;99.90;;;;;;5118691;27;20030;-82
2022/03/07 08:33:45;;;;;;;12.35;6.90;;;1.40;99.90;;;;;;5109768;28;20165;-82
2022/03/07 08:36:11;;;;;;;14.35;7.65;;;1.40;99.90;;;;;;5116784;28;20048;-81
2022/03/07 08:38:36;;;;;;;15.00;8.20;;;1.50;99.90;;;;;;5116559;28;20051;-81
2022/03/07 08:41:02;;;;;;;13.60;7.10;;;1.50;99.90;;;;;;5116885;28;20031;-82
2022/03/07 08:43:28;;;;;;;17.90;7.47;;;1.50;99.90;;;;;;5127709;27;20034;-81
2022/03/07 08:45:54;;;;;;;20.15;7.90;;;1.60;99.90;;;;;;5135489;27;20023;-82
2022/03/07 08:48:19;;;;;;;11.77;6.90;;;1.60;99.90;;;;;;5136779;27;20463;-82
2022/03/07 08:50:48;;;;;;;21.23;6.78;;;1.70;99.90;;;;;;5120276;27;20023;-82
2022/03/07 08:53:16;;;;;;;13.32;7.22;;;1.80;99.90;;;;;;5127104;27;20015;-82
2022/03/07 08:55:42;;;;;;;12.73;6.53;;;1.80;99.90;;;;;;5121890;27;20028;-82
2022/03/07 08:58:07;;;;;;;9.15;5.90;;;1.80;99.90;;;;;;5129674;27;20031;-84
2022/03/07 09:00:41;;;;;;;19.27;6.90;;;1.90;99.90;;;;;;5136829;27;20049;-82
2022/03/07 09:03:07;;;;;;;14.50;7.22;;;2.00;99.90;;;;;;5118261;27;20401;-84
2022/03/07 09:05:32;;;;;;;15.07;7.50;;;2.10;99.90;;;;;;5136420;27;20023;-83
2022/03/07 09:07:58;;;;;;;13.30;7.22;;;2.10;99.90;;;;;;5136472;27;20023;-84
2022/03/07 09:10:23;;;;;;;14.52;7.82;;;2.10;99.90;;;;;;5136320;27;20069;-83
2022/03/07 09:12:49;;;;;;;13.77;7.28;;;2.20;99.90;;;;;;5117572;27;20034;-83
2022/03/07 09:15:15;;;;;;;11.73;7.22;;;2.30;99.90;;;;;;5136302;27;20019;-84
2022/03/07 09:17:41;;;;;;;11.77;7.15;;;2.20;99.90;;;;;;5136276;27;20023;-84
2022/03/07 09:20:08;;;;;;;15.73;7.60;;;2.30;99.90;;;;;;5136292;27;20111;-84
2022/03/07 09:22:35;;;;;;;18.98;7.47;;;2.30;99.90;;;;;;5135850;27;20024;-84
2022/03/07 09:25:02;;;;;;;11.23;6.57;;;2.40;99.90;;;;;;5136135;27;20098;-84
2022/03/07 09:27:28;;;;;;;16.92;7.07;;;2.40;99.90;;;;;;5135620;27;20135;-84
2022/03/07 09:29:53;;;;;;;11.35;6.65;;;2.40;99.90;;;;;;5117593;27;20478;-85
2022/03/07 09:32:19;;;;;;;18.40;7.90;;;2.50;99.90;;;;;;5135847;27;20023;-84
2022/03/07 09:34:45;;;;;;;18.50;7.22;;;2.50;99.90;;;;;;5124654;27;20382;-83
2022/03/07 09:37:11;;;;;;;14.10;6.75;;;2.60;99.90;;;;;;5132210;27;20043;-83
2022/03/07 09:40:04;;;;;;;13.57;6.80;;;2.60;99.90;;;;;;5117784;27;20088;-82
2022/03/07 09:42:29;;;;;;;12.98;5.88;;;2.70;99.90;;;;;;5115434;27;20019;-83
2022/03/07 09:44:55;;;;;;;12.07;6.65;;;2.80;99.90;;;;;;5115404;28;20159;-83
2022/03/07 09:47:25;;;;;;;17.92;8.20;;;2.80;99.90;;;;;;5118261;27;20027;-82
2022/03/07 09:49:51;;;;;;;15.75;6.65;;;2.80;99.90;;;;;;5136212;27;20023;-82
2022/03/07 09:52:18;;;;;;;14.43;6.75;;;2.90;99.90;;;;;;5133956;27;20435;-81
2022/03/07 09:54:43;;;;;;;11.80;6.53;;;2.90;99.90;;;;;;5115341;28;20024;-81
2022/03/07 09:57:09;;;;;;;12.05;6.72;;;3.00;99.90;;;;;;5115274;27;20352;-82
2022/03/07 09:59:35;;;;;;;15.48;6.70;;;2.90;99.90;;;;;;5115329;28;20409;-82
2022/03/07 10:02:07;;;;;;;13.18;6.75;;;3.00;99.90;;;;;;5115233;28;20020;-80
2022/03/07 10:04:52;;;;;;;13.43;6.97;;;3.10;99.90;;;;;;5133744;27;20019;-82
2022/03/07 10:07:18;;;;;;;10.45;6.50;;;3.20;99.90;;;;;;5115088;28;20027;-81
2022/03/07 10:09:46;;;;;;;10.70;6.50;;;3.20;99.90;;;;;;5115143;28;20810;-81
2022/03/07 10:12:11;;;;;;;10.18;6.25;;;3.30;99.90;;;;;;5116797;27;20110;-82
2022/03/07 10:14:44;;;;;;;11.82;6.63;;;3.40;99.90;;;;;;5117074;27;20106;-82
2022/03/07 10:17:33;;;;;;;9.82;6.47;;;3.40;99.90;;;;;;5133843;27;20107;-82
2022/03/07 10:20:04;;;;;;;13.32;6.43;;;3.50;99.90;;;;;;5115051;28;20085;-81
2022/03/07 10:22:30;;;;;;;11.80;6.38;;;3.60;99.90;;;;;;5114501;28;20016;-82
2022/03/07 10:25:07;;;;;;;13.00;6.10;;;3.70;99.90;;;;;;5114331;28;20020;-82
2022/03/07 10:27:39;;;;;;;12.10;6.40;;;3.80;99.90;;;;;;5113933;28;20034;-82
2022/03/07 10:30:17;;;;;;;12.32;6.85;;;3.70;99.90;;;;;;5114394;28;20066;-82
2022/03/07 10:32:51;;;;;;;10.73;6.05;;;3.70;99.90;;;;;;5114141;28;20107;-82
2022/03/07 10:35:28;;;;;;;12.07;6.70;;;3.70;99.90;;;;;;5095879;28;20036;-82
2022/03/07 10:37:59;;;;;;;12.35;6.55;;;3.80;99.90;;;;;;5121397;27;20039;-82
2022/03/07 10:40:26;;;;;;;12.25;5.38;;;3.90;99.90;;;;;;5135013;27;20019;-81
2022/03/07 10:42:53;;;;;;;17.02;7.10;;;3.90;99.90;;;;;;5112840;27;20073;-82
2022/03/07 10:45:23;;;;;;;12.32;6.60;;;4.00;99.90;;;;;;5114353;28;20016;-82
2022/03/07 10:47:53;;;;;;;12.73;6.13;;;4.00;99.90;;;;;;5096248;28;20034;-81
2022/03/07 10:50:20;;;;;;;9.93;5.90;;;4.00;99.90;;;;;;5114412;28;20114;-81
2022/03/07 10:52:46;;;;;;;11.90;6.38;;;4.10;99.90;;;;;;5120236;27;20071;-81
2022/03/07 10:55:12;;;;;;;10.15;5.63;;;4.10;99.90;;;;;;5118276;27;20118;-81
2022/03/07 10:57:40;;;;;;;12.10;7.07;;;4.00;99.90;;;;;;5117646;27;20561;-81
2022/03/07 11:00:17;;;;;;;12.05;5.82;;;4.10;99.90;;;;;;5134401;27;20022;-81
2022/03/07 11:02:45;;;;;;;10.98;6.88;;;4.10;99.90;;;;;;5133909;27;20015;-82
2022/03/07 11:05:17;;;;;;;10.63;6.82;;;4.10;99.90;;;;;;5127850;27;20420;-83
2022/03/07 11:07:45;;;;;;;22.15;6.30;;;4.00;99.90;;;;;;5113915;28;20043;-83
2022/03/07 11:10:12;;;;;;;13.77;6.45;;;4.00;99.90;;;;;;5095647;28;20028;-83
2022/03/07 11:12:39;;;;;;;13.93;6.85;;;4.00;99.90;;;;;;5113318;28;20367;-83
2022/03/07 11:15:09;;;;;;;12.43;6.43;;;4.00;99.90;;;;;;5095278;28;20027;-84
2022/03/07 11:17:40;;;;;;;10.90;6.10;;;4.00;99.90;;;;;;5094894;28;20110;-83
2022/03/07 11:20:07;;;;;;;13.90;7.30;;;4.00;99.90;;;;;;5095018;28;20031;-84
2022/03/07 11:22:33;;;;;;;15.18;6.07;;;4.10;99.90;;;;;;5113002;28;20051;-83
2022/03/07 11:25:00;;;;;;;15.13;7.85;;;4.20;99.90;;;;;;5112816;28;20019;-83
2022/03/07 11:27:28;;;;;;;15.93;6.43;;;4.30;99.90;;;;;;5092876;28;20024;-84
2022/03/07 11:29:55;;;;;;;11.38;6.15;;;4.30;99.90;;;;;;5091974;28;20023;-84
2022/03/07 11:32:21;;;;;;;11.85;6.35;;;4.40;99.90;;;;;;5093063;28;20110;-85
2022/03/07 11:34:59;;;;;;;14.80;6.57;;;4.50;99.90;;;;;;5074551;28;20024;-85
2022/03/07 11:37:32;;;;;;;10.27;5.97;;;4.50;99.90;;;;;;5093098;28;20093;-87
2022/03/07 11:40:00;;;;;;;11.20;5.80;;;4.60;99.90;;;;;;5078207;27;20020;-89
2022/03/07 11:42:37;;;;;;;12.73;5.55;;;4.70;99.90;;;;;;5114865;27;20030;-88
2022/03/07 11:45:16;;;;;;;10.90;5.72;;;4.70;99.90;;;;;;5102492;28;20111;-88
2022/03/07 11:47:42;;;;;;;9.50;5.32;;;4.70;99.90;;;;;;5116659;27;20028;-88
2022/03/07 11:50:08;;;;;;;10.27;6.03;;;4.70;99.90;;;;;;5113118;28;20051;-88
2022/03/07 11:52:35;;;;;;;9.55;5.50;;;4.60;99.90;;;;;;5112781;28;20026;-87
2022/03/07 11:55:19;;;;;;;10.98;6.15;;;4.60;99.90;;;;;;5096804;27;20034;-87
2022/03/07 11:57:58;;;;;;;8.18;5.60;;;4.70;99.90;;;;;;5130936;28;20080;-88
2022/03/07 12:00:32;;;;;;;13.20;5.32;;;4.80;99.90;;;;;;5131653;27;20023;-89
2022/03/07 12:02:59;;;;;;;9.75;5.40;;;4.80;99.90;;;;;;5133364;28;20057;-89
2022/03/07 12:05:29;;;;;;;10.07;5.55;;;4.80;99.90;;;;;;5127309;28;20024;-86
2022/03/07 12:08:18;;;;;;;10.90;6.00;;;5.00;99.90;;;;;;5127899;28;20481;-87
2022/03/07 12:10:55;;;;;;;9.38;5.93;;;5.20;99.90;;;;;;5133114;28;20030;-87
2022/03/07 12:13:20;;;;;;;12.63;6.65;;;5.40;99.90;;;;;;5132950;28;20016;-88
2022/03/07 12:15:57;;;;;;;10.63;5.82;;;5.50;99.90;;;;;;5114782;28;20076;-88
2022/03/07 12:18:23;;;;;;;9.07;5.78;;;5.50;99.90;;;;;;5133421;28;20047;-88
2022/03/07 12:20:50;;;;;;;11.02;5.95;;;5.50;99.90;;;;;;5114802;28;20019;-88
2022/03/07 12:23:17;;;;;;;9.43;6.13;;;5.60;99.90;;;;;;5133074;28;20031;-87
2022/03/07 12:25:43;;;;;;;13.90;5.32;;;5.70;99.90;;;;;;5133161;28;20027;-87
2022/03/07 12:28:10;;;;;;;8.85;5.13;;;5.70;99.90;;;;;;5114406;28;20442;-87
2022/03/07 12:30:36;;;;;;;6.45;4.97;;;5.60;99.90;;;;;;5133249;28;20061;-88
2022/03/07 12:33:09;;;;;;;13.65;6.00;;;5.60;99.90;;;;;;5114783;28;20490;-89
2022/03/07 12:35:35;;;;;;;9.55;4.78;;;5.50;99.90;;;;;;5133187;28;20023;-88
2022/03/07 12:38:06;;;;;;;9.13;6.13;;;5.50;99.90;;;;;;5132711;28;20502;-88
2022/03/07 12:40:34;;;;;;;10.98;5.53;;;5.60;99.90;;;;;;5114769;28;20498;-89
2022/03/07 12:43:01;;;;;;;12.25;5.50;;;5.70;99.90;;;;;;5114442;28;20114;-89
2022/03/07 12:45:26;;;;;;;7.93;5.00;;;5.80;99.90;;;;;;5114570;28;20026;-88
2022/03/07 12:47:56;;;;;;;8.93;4.78;;;5.80;99.90;;;;;;5132972;28;20023;-88
2022/03/07 12:50:26;;;;;;;8.73;4.57;;;5.90;99.90;;;;;;5133060;28;20723;-89